sensor_id;sensor_type;location;lat;lon;timestamp;temperature;humidity
35668;DHT22;22158;59.280;17.806;2023-07-20T00:01:45;13.20;99.90
35668;DHT22;22158;59.280;17.806;2023-07-20T00:04:11;13.20;99.90
35668;DHT22;22158;59.280;17.806;2023-07-20T00:06:37;13.20;99.90
35668;DHT22;22158;59.280;17.806;2023-07-20T00:09:08;13.20;99.90
35668;DHT22;22158;59.280;17.806;2023-07-20T00:11:36;13.20;99.90
35668;DHT22;22158;59.280;17.806;2023-07-20T00:14:05;13.20;99.90
35668;DHT22;22158;59.280;17.806;2023-07-20T00:16:31;13.10;99.90
35668;DHT22;22158;59.280;17.806;2023-07-20T00:18:56;13.10;99.90
35668;DHT22;22158;59.280;17.806;2023-07-20T00:21:22;13.10;99.90
35668;DHT22;22158;59.280;17.806;2023-07-20T00:23:47;13.00;99.90
35668;DHT22;22158;59.280;17.806;2023-07-20T00:26:13;13.00;99.90
35668;DHT22;22158;59.280;17.806;2023-07-20T00:28:39;13.10;99.90
35668;DHT22;22158;59.280;17.806;2023-07-20T00:31:04;13.10;99.90
35668;DHT22;22158;59.280;17.806;2023-07-20T00:33:30;13.00;99.90
35668;DHT22;22158;59.280;17.806;2023-07-20T00:35:56;13.00;99.90
35668;DHT22;22158;59.280;17.806;2023-07-20T00:38:21;12.90;99.90
35668;DHT22;22158;59.280;17.806;2023-07-20T00:40:47;12.80;99.90
35668;DHT22;22158;59.280;17.806;2023-07-20T00:43:15;12.80;99.90
35668;DHT22;22158;59.280;17.806;2023-07-20T00:45:40;12.80;99.90
35668;DHT22;22158;59.280;17.806;2023-07-20T00:48:07;12.80;99.90
35668;DHT22;22158;59.280;17.806;2023-07-20T00:50:33;12.80;99.90
35668;DHT22;22158;59.280;17.806;2023-07-20T00:52:59;12.80;99.90
35668;DHT22;22158;59.280;17.806;2023-07-20T00:55:26;12.80;99.90
35668;DHT22;22158;59.280;17.806;2023-07-20T00:57:52;12.80;99.90
35668;DHT22;22158;59.280;17.806;2023-07-20T01:00:18;12.80;99.90
35668;DHT22;22158;59.280;17.806;2023-07-20T01:02:44;12.70;99.90
35668;DHT22;22158;59.280;17.806;2023-07-20T01:05:10;12.70;99.90
35668;DHT22;22158;59.280;17.806;2023-07-20T01:12:47;12.60;99.90
35668;DHT22;22158;59.280;17.806;2023-07-20T01:15:12;12.60;99.90
35668;DHT22;22158;59.280;17.806;2023-07-20T01:17:38;12.60;99.90
35668;DHT22;22158;59.280;17.806;2023-07-20T01:20:06;12.60;99.90
35668;DHT22;22158;59.280;17.806;2023-07-20T01:33:45;12.50;99.90
35668;DHT22;22158;59.280;17.806;2023-07-20T01:36:11;12.50;99.90
35668;DHT22;22158;59.280;17.806;2023-07-20T01:38:37;12.50;99.90
35668;DHT22;22158;59.280;17.806;2023-07-20T01:41:03;12.50;99.90
35668;DHT22;22158;59.280;17.806;2023-07-20T01:43:29;12.50;99.90
35668;DHT22;22158;59.280;17.806;2023-07-20T01:45:55;12.50;99.90
35668;DHT22;22158;59.280;17.806;2023-07-20T01:48:20;12.50;99.90
35668;DHT22;22158;59.280;17.806;2023-07-20T01:50:46;12.50;99.90
35668;DHT22;22158;59.280;17.806;2023-07-20T01:53:11;12.40;99.90
35668;DHT22;22158;59.280;17.806;2023-07-20T01:55:37;12.40;99.90
35668;DHT22;22158;59.280;17.806;2023-07-20T01:58:02;12.40;99.90
35668;DHT22;22158;59.280;17.806;2023-07-20T02:00:29;12.40;99.90
35668;DHT22;22158;59.280;17.806;2023-07-20T02:02:55;12.40;99.90
35668;DHT22;22158;59.280;17.806;2023-07-20T02:05:20;12.30;99.90
35668;DHT22;22158;59.280;17.806;2023-07-20T02:07:46;12.40;99.90
35668;DHT22;22158;59.280;17.806;2023-07-20T02:10:12;12.30;99.90
35668;DHT22;22158;59.280;17.806;2023-07-20T02:12:37;12.30;99.90
35668;DHT22;22158;59.280;17.806;2023-07-20T02:15:03;12.30;99.90
35668;DHT22;22158;59.280;17.806;2023-07-20T02:17:29;12.30;99.90
35668;DHT22;22158;59.280;17.806;2023-07-20T02:19:56;12.30;99.90
35668;DHT22;22158;59.280;17.806;2023-07-20T02:22:22;12.30;99.90
35668;DHT22;22158;59.280;17.806;2023-07-20T02:24:47;12.40;99.90
35668;DHT22;22158;59.280;17.806;2023-07-20T02:27:13;12.50;99.90
35668;DHT22;22158;59.280;17.806;2023-07-20T02:29:41;12.50;99.90
35668;DHT22;22158;59.280;17.806;2023-07-20T02:32:07;12.40;99.90
35668;DHT22;22158;59.280;17.806;2023-07-20T02:34:33;12.30;99.90
35668;DHT22;22158;59.280;17.806;2023-07-20T02:36:59;12.30;99.90
35668;DHT22;22158;59.280;17.806;2023-07-20T02:39:29;12.40;99.90
35668;DHT22;22158;59.280;17.806;2023-07-20T02:41:55;12.40;99.90
35668;DHT22;22158;59.280;17.806;2023-07-20T02:44:20;12.30;99.90
35668;DHT22;22158;59.280;17.806;2023-07-20T02:46:46;12.30;99.90
35668;DHT22;22158;59.280;17.806;2023-07-20T02:49:12;12.30;99.90
35668;DHT22;22158;59.280;17.806;2023-07-20T02:51:37;12.30;99.90
35668;DHT22;22158;59.280;17.806;2023-07-20T02:54:03;12.30;99.90
35668;DHT22;22158;59.280;17.806;2023-07-20T02:56:29;12.30;99.90
35668;DHT22;22158;59.280;17.806;2023-07-20T02:58:54;12.30;99.90
35668;DHT22;22158;59.280;17.806;2023-07-20T03:01:20;12.20;99.90
35668;DHT22;22158;59.280;17.806;2023-07-20T03:03:46;12.20;99.90
35668;DHT22;22158;59.280;17.806;2023-07-20T03:06:15;12.30;99.90
35668;DHT22;22158;59.280;17.806;2023-07-20T03:08:41;12.30;99.90
35668;DHT22;22158;59.280;17.806;2023-07-20T03:11:07;12.30;99.90
35668;DHT22;22158;59.280;17.806;2023-07-20T03:13:33;12.30;99.90
35668;DHT22;22158;59.280;17.806;2023-07-20T03:15:58;12.30;99.90
35668;DHT22;22158;59.280;17.806;2023-07-20T03:18:24;12.30;99.90
35668;DHT22;22158;59.280;17.806;2023-07-20T03:20:49;12.30;99.90
35668;DHT22;22158;59.280;17.806;2023-07-20T03:23:15;12.30;99.90
35668;DHT22;22158;59.280;17.806;2023-07-20T03:25:42;12.40;99.90
35668;DHT22;22158;59.280;17.806;2023-07-20T03:28:07;12.30;99.90
35668;DHT22;22158;59.280;17.806;2023-07-20T03:30:33;12.40;99.90
35668;DHT22;22158;59.280;17.806;2023-07-20T03:32:58;12.40;99.90
35668;DHT22;22158;59.280;17.806;2023-07-20T03:35:24;12.40;99.90
35668;DHT22;22158;59.280;17.806;2023-07-20T03:37:49;12.40;99.90
35668;DHT22;22158;59.280;17.806;2023-07-20T03:40:15;12.40;99.90
35668;DHT22;22158;59.280;17.806;2023-07-20T03:42:41;12.50;99.90
35668;DHT22;22158;59.280;17.806;2023-07-20T03:45:07;12.50;99.90
35668;DHT22;22158;59.280;17.806;2023-07-20T03:47:33;12.50;99.90
35668;DHT22;22158;59.280;17.806;2023-07-20T03:49:59;12.50;99.90
35668;DHT22;22158;59.280;17.806;2023-07-20T03:52:24;12.60;99.90
35668;DHT22;22158;59.280;17.806;2023-07-20T03:54:50;12.60;99.90
35668;DHT22;22158;59.280;17.806;2023-07-20T03:57:18;12.60;99.90
35668;DHT22;22158;59.280;17.806;2023-07-20T03:59:48;12.70;99.90
35668;DHT22;22158;59.280;17.806;2023-07-20T04:02:14;12.80;99.90
35668;DHT22;22158;59.280;17.806;2023-07-20T04:04:40;12.80;99.90
35668;DHT22;22158;59.280;17.806;2023-07-20T04:07:06;12.90;99.90
35668;DHT22;22158;59.280;17.806;2023-07-20T04:09:32;12.90;99.90
35668;DHT22;22158;59.280;17.806;2023-07-20T04:11:58;12.90;99.90
35668;DHT22;22158;59.280;17.806;2023-07-20T04:14:24;12.90;99.90
35668;DHT22;22158;59.280;17.806;2023-07-20T04:16:49;13.00;99.90
35668;DHT22;22158;59.280;17.806;2023-07-20T04:19:17;13.00;99.90
35668;DHT22;22158;59.280;17.806;2023-07-20T04:21:43;13.00;99.90
35668;DHT22;22158;59.280;17.806;2023-07-20T04:24:09;13.10;99.90
35668;DHT22;22158;59.280;17.806;2023-07-20T04:26:34;13.10;99.90
35668;DHT22;22158;59.280;17.806;2023-07-20T04:29:00;13.10;99.90
35668;DHT22;22158;59.280;17.806;2023-07-20T04:31:26;13.20;99.90
35668;DHT22;22158;59.280;17.806;2023-07-20T04:33:52;13.20;99.90
35668;DHT22;22158;59.280;17.806;2023-07-20T04:36:17;13.30;99.90
35668;DHT22;22158;59.280;17.806;2023-07-20T04:38:45;13.30;99.90
35668;DHT22;22158;59.280;17.806;2023-07-20T04:41:11;13.40;99.90
35668;DHT22;22158;59.280;17.806;2023-07-20T04:43:41;13.40;99.90
35668;DHT22;22158;59.280;17.806;2023-07-20T04:46:08;13.40;99.90
35668;DHT22;22158;59.280;17.806;2023-07-20T04:48:34;13.50;99.90
35668;DHT22;22158;59.280;17.806;2023-07-20T04:51:00;13.50;99.90
35668;DHT22;22158;59.280;17.806;2023-07-20T04:53:25;13.60;99.90
35668;DHT22;22158;59.280;17.806;2023-07-20T04:55:51;13.60;99.90
35668;DHT22;22158;59.280;17.806;2023-07-20T04:58:18;13.60;99.90
35668;DHT22;22158;59.280;17.806;2023-07-20T05:00:44;13.70;99.90
35668;DHT22;22158;59.280;17.806;2023-07-20T05:03:09;13.80;99.90
35668;DHT22;22158;59.280;17.806;2023-07-20T05:05:35;13.80;99.90
35668;DHT22;22158;59.280;17.806;2023-07-20T05:08:00;13.90;99.90
35668;DHT22;22158;59.280;17.806;2023-07-20T05:10:26;13.90;99.90
35668;DHT22;22158;59.280;17.806;2023-07-20T05:12:51;14.00;99.90
35668;DHT22;22158;59.280;17.806;2023-07-20T05:15:17;14.00;99.90
35668;DHT22;22158;59.280;17.806;2023-07-20T05:17:43;14.10;99.90
35668;DHT22;22158;59.280;17.806;2023-07-20T05:20:08;14.10;99.90
35668;DHT22;22158;59.280;17.806;2023-07-20T05:22:36;14.20;99.90
35668;DHT22;22158;59.280;17.806;2023-07-20T05:25:08;14.20;99.90
35668;DHT22;22158;59.280;17.806;2023-07-20T05:27:36;14.30;99.90
35668;DHT22;22158;59.280;17.806;2023-07-20T05:30:02;14.30;99.90
35668;DHT22;22158;59.280;17.806;2023-07-20T05:32:28;14.40;99.90
35668;DHT22;22158;59.280;17.806;2023-07-20T05:34:54;14.50;99.90
35668;DHT22;22158;59.280;17.806;2023-07-20T05:37:20;14.50;99.90
35668;DHT22;22158;59.280;17.806;2023-07-20T05:39:45;14.50;99.90
35668;DHT22;22158;59.280;17.806;2023-07-20T05:42:11;14.60;99.90
35668;DHT22;22158;59.280;17.806;2023-07-20T05:44:37;14.60;99.90
35668;DHT22;22158;59.280;17.806;2023-07-20T05:47:02;14.60;99.90
35668;DHT22;22158;59.280;17.806;2023-07-20T05:49:28;14.70;99.90
35668;DHT22;22158;59.280;17.806;2023-07-20T05:51:55;14.80;99.90
35668;DHT22;22158;59.280;17.806;2023-07-20T05:54:21;14.90;99.90
35668;DHT22;22158;59.280;17.806;2023-07-20T05:56:47;15.00;99.90
35668;DHT22;22158;59.280;17.806;2023-07-20T05:59:12;15.10;99.90
35668;DHT22;22158;59.280;17.806;2023-07-20T06:01:38;15.10;99.90
35668;DHT22;22158;59.280;17.806;2023-07-20T06:04:04;15.20;99.90
35668;DHT22;22158;59.280;17.806;2023-07-20T06:06:29;15.20;99.90
35668;DHT22;22158;59.280;17.806;2023-07-20T06:08:55;15.30;99.90
35668;DHT22;22158;59.280;17.806;2023-07-20T06:11:20;15.40;99.90
35668;DHT22;22158;59.280;17.806;2023-07-20T06:13:46;15.40;99.90
35668;DHT22;22158;59.280;17.806;2023-07-20T06:16:12;15.40;99.90
35668;DHT22;22158;59.280;17.806;2023-07-20T06:18:37;15.50;99.90
35668;DHT22;22158;59.280;17.806;2023-07-20T06:21:03;15.50;99.90
35668;DHT22;22158;59.280;17.806;2023-07-20T06:23:28;15.60;99.90
35668;DHT22;22158;59.280;17.806;2023-07-20T06:25:54;15.70;99.90
35668;DHT22;22158;59.280;17.806;2023-07-20T06:28:20;15.90;99.90
35668;DHT22;22158;59.280;17.806;2023-07-20T06:30:45;16.00;99.90
35668;DHT22;22158;59.280;17.806;2023-07-20T06:33:11;16.00;99.90
35668;DHT22;22158;59.280;17.806;2023-07-20T06:35:36;16.00;99.90
35668;DHT22;22158;59.280;17.806;2023-07-20T06:38:02;16.10;99.90
35668;DHT22;22158;59.280;17.806;2023-07-20T06:40:32;16.10;99.90
35668;DHT22;22158;59.280;17.806;2023-07-20T06:42:57;16.20;99.90
35668;DHT22;22158;59.280;17.806;2023-07-20T06:45:23;16.40;99.90
35668;DHT22;22158;59.280;17.806;2023-07-20T06:47:49;16.60;99.90
35668;DHT22;22158;59.280;17.806;2023-07-20T06:50:14;16.70;99.90
35668;DHT22;22158;59.280;17.806;2023-07-20T06:52:41;16.80;99.90
35668;DHT22;22158;59.280;17.806;2023-07-20T06:55:07;16.90;99.90
35668;DHT22;22158;59.280;17.806;2023-07-20T06:57:32;16.90;99.90
35668;DHT22;22158;59.280;17.806;2023-07-20T06:59:58;17.00;99.90
35668;DHT22;22158;59.280;17.806;2023-07-20T07:02:23;17.10;99.90
35668;DHT22;22158;59.280;17.806;2023-07-20T07:04:50;17.10;99.90
35668;DHT22;22158;59.280;17.806;2023-07-20T07:07:16;17.20;99.90
35668;DHT22;22158;59.280;17.806;2023-07-20T07:09:42;17.20;99.90
35668;DHT22;22158;59.280;17.806;2023-07-20T07:12:08;17.20;99.90
35668;DHT22;22158;59.280;17.806;2023-07-20T07:14:34;17.20;99.90
35668;DHT22;22158;59.280;17.806;2023-07-20T07:17:00;17.30;99.90
35668;DHT22;22158;59.280;17.806;2023-07-20T07:19:25;17.40;99.90
35668;DHT22;22158;59.280;17.806;2023-07-20T07:21:51;17.50;99.90
35668;DHT22;22158;59.280;17.806;2023-07-20T07:24:17;17.50;99.90
35668;DHT22;22158;59.280;17.806;2023-07-20T07:26:42;17.50;99.90
35668;DHT22;22158;59.280;17.806;2023-07-20T07:29:08;17.60;99.90
35668;DHT22;22158;59.280;17.806;2023-07-20T07:31:36;17.60;99.90
35668;DHT22;22158;59.280;17.806;2023-07-20T07:34:03;17.60;99.90
35668;DHT22;22158;59.280;17.806;2023-07-20T07:36:30;17.60;99.90
35668;DHT22;22158;59.280;17.806;2023-07-20T07:38:56;17.70;99.90
35668;DHT22;22158;59.280;17.806;2023-07-20T07:41:21;17.70;99.90
35668;DHT22;22158;59.280;17.806;2023-07-20T07:43:47;17.80;99.90
35668;DHT22;22158;59.280;17.806;2023-07-20T07:46:13;18.00;99.90
35668;DHT22;22158;59.280;17.806;2023-07-20T07:48:39;18.10;99.90
35668;DHT22;22158;59.280;17.806;2023-07-20T07:51:05;18.20;99.90
35668;DHT22;22158;59.280;17.806;2023-07-20T07:53:31;18.30;99.90
35668;DHT22;22158;59.280;17.806;2023-07-20T07:55:58;18.30;99.90
35668;DHT22;22158;59.280;17.806;2023-07-20T07:58:23;18.30;99.90
35668;DHT22;22158;59.280;17.806;2023-07-20T08:00:49;18.30;99.90
35668;DHT22;22158;59.280;17.806;2023-07-20T08:03:14;18.50;99.90
35668;DHT22;22158;59.280;17.806;2023-07-20T08:05:40;18.60;99.90
35668;DHT22;22158;59.280;17.806;2023-07-20T08:08:06;18.70;99.90
35668;DHT22;22158;59.280;17.806;2023-07-20T08:10:31;18.90;99.90
35668;DHT22;22158;59.280;17.806;2023-07-20T08:12:57;19.10;99.90
35668;DHT22;22158;59.280;17.806;2023-07-20T08:15:23;19.20;99.90
35668;DHT22;22158;59.280;17.806;2023-07-20T08:17:48;19.20;99.90
35668;DHT22;22158;59.280;17.806;2023-07-20T08:20:17;19.20;99.90
35668;DHT22;22158;59.280;17.806;2023-07-20T08:22:43;19.00;99.90
35668;DHT22;22158;59.280;17.806;2023-07-20T08:25:09;19.00;99.90
35668;DHT22;22158;59.280;17.806;2023-07-20T08:27:35;19.10;99.90
35668;DHT22;22158;59.280;17.806;2023-07-20T08:30:01;19.20;99.90
35668;DHT22;22158;59.280;17.806;2023-07-20T08:32:27;19.00;99.90
35668;DHT22;22158;59.280;17.806;2023-07-20T08:34:53;19.00;99.00
35668;DHT22;22158;59.280;17.806;2023-07-20T08:37:19;19.00;99.90
35668;DHT22;22158;59.280;17.806;2023-07-20T08:39:44;19.10;99.10
35668;DHT22;22158;59.280;17.806;2023-07-20T08:42:10;19.20;98.70
35668;DHT22;22158;59.280;17.806;2023-07-20T08:44:38;19.10;99.40
35668;DHT22;22158;59.280;17.806;2023-07-20T08:47:06;19.00;99.90
35668;DHT22;22158;59.280;17.806;2023-07-20T08:49:32;19.00;99.90
35668;DHT22;22158;59.280;17.806;2023-07-20T08:51:59;18.80;98.90
35668;DHT22;22158;59.280;17.806;2023-07-20T08:54:29;18.90;98.70
35668;DHT22;22158;59.280;17.806;2023-07-20T08:56:57;19.00;99.70
35668;DHT22;22158;59.280;17.806;2023-07-20T08:59:23;19.00;99.90
35668;DHT22;22158;59.280;17.806;2023-07-20T09:01:50;19.00;99.40
35668;DHT22;22158;59.280;17.806;2023-07-20T09:04:17;18.80;99.50
35668;DHT22;22158;59.280;17.806;2023-07-20T09:06:43;18.60;99.50
35668;DHT22;22158;59.280;17.806;2023-07-20T09:09:09;18.60;99.90
35668;DHT22;22158;59.280;17.806;2023-07-20T09:11:34;18.60;99.90
35668;DHT22;22158;59.280;17.806;2023-07-20T09:14:06;18.50;99.30
35668;DHT22;22158;59.280;17.806;2023-07-20T09:16:45;18.20;98.50
35668;DHT22;22158;59.280;17.806;2023-07-20T09:19:11;18.10;99.90
35668;DHT22;22158;59.280;17.806;2023-07-20T09:21:37;18.10;99.90
35668;DHT22;22158;59.280;17.806;2023-07-20T09:24:03;18.30;99.90
35668;DHT22;22158;59.280;17.806;2023-07-20T09:26:28;18.50;99.90
35668;DHT22;22158;59.280;17.806;2023-07-20T09:28:54;18.80;99.90
35668;DHT22;22158;59.280;17.806;2023-07-20T09:31:22;19.10;98.60
35668;DHT22;22158;59.280;17.806;2023-07-20T09:33:49;19.20;99.80
35668;DHT22;22158;59.280;17.806;2023-07-20T09:36:15;19.20;99.50
35668;DHT22;22158;59.280;17.806;2023-07-20T09:38:44;19.20;97.60
35668;DHT22;22158;59.280;17.806;2023-07-20T09:41:15;19.10;98.10
35668;DHT22;22158;59.280;17.806;2023-07-20T09:43:43;19.10;99.70
35668;DHT22;22158;59.280;17.806;2023-07-20T09:46:10;19.10;99.90
35668;DHT22;22158;59.280;17.806;2023-07-20T09:48:36;19.10;99.00
35668;DHT22;22158;59.280;17.806;2023-07-20T09:51:02;19.10;99.40
35668;DHT22;22158;59.280;17.806;2023-07-20T09:53:28;19.00;98.70
35668;DHT22;22158;59.280;17.806;2023-07-20T09:55:55;19.00;98.70
35668;DHT22;22158;59.280;17.806;2023-07-20T09:58:21;19.10;99.90
35668;DHT22;22158;59.280;17.806;2023-07-20T10:00:48;19.20;99.30
35668;DHT22;22158;59.280;17.806;2023-07-20T10:03:19;19.30;99.60
35668;DHT22;22158;59.280;17.806;2023-07-20T10:05:54;19.40;99.60
35668;DHT22;22158;59.280;17.806;2023-07-20T10:08:24;19.60;98.30
35668;DHT22;22158;59.280;17.806;2023-07-20T10:10:50;19.90;99.00
35668;DHT22;22158;59.280;17.806;2023-07-20T10:13:25;20.20;96.50
35668;DHT22;22158;59.280;17.806;2023-07-20T10:15:54;20.60;98.00
35668;DHT22;22158;59.280;17.806;2023-07-20T10:18:30;20.60;95.90
35668;DHT22;22158;59.280;17.806;2023-07-20T10:20:57;20.30;95.90
35668;DHT22;22158;59.280;17.806;2023-07-20T10:23:24;20.30;96.80
35668;DHT22;22158;59.280;17.806;2023-07-20T10:25:52;20.10;99.10
35668;DHT22;22158;59.280;17.806;2023-07-20T10:28:18;19.70;99.90
35668;DHT22;22158;59.280;17.806;2023-07-20T10:30:45;19.40;99.90
35668;DHT22;22158;59.280;17.806;2023-07-20T10:33:11;19.10;99.90
35668;DHT22;22158;59.280;17.806;2023-07-20T10:36:02;18.80;99.90
35668;DHT22;22158;59.280;17.806;2023-07-20T10:38:44;18.40;99.90
35668;DHT22;22158;59.280;17.806;2023-07-20T10:41:21;17.80;99.90
35668;DHT22;22158;59.280;17.806;2023-07-20T10:43:48;17.40;99.90
35668;DHT22;22158;59.280;17.806;2023-07-20T10:46:14;17.10;99.90
35668;DHT22;22158;59.280;17.806;2023-07-20T10:49:04;16.90;99.90
35668;DHT22;22158;59.280;17.806;2023-07-20T10:51:30;16.80;99.90
35668;DHT22;22158;59.280;17.806;2023-07-20T10:54:02;16.70;99.90
35668;DHT22;22158;59.280;17.806;2023-07-20T10:56:28;16.60;99.90
35668;DHT22;22158;59.280;17.806;2023-07-20T10:59:00;16.60;99.90
35668;DHT22;22158;59.280;17.806;2023-07-20T11:01:36;16.50;99.90
35668;DHT22;22158;59.280;17.806;2023-07-20T11:04:08;16.40;99.90
35668;DHT22;22158;59.280;17.806;2023-07-20T11:06:33;16.40;99.90
35668;DHT22;22158;59.280;17.806;2023-07-20T11:09:11;16.50;99.90
35668;DHT22;22158;59.280;17.806;2023-07-20T11:11:41;16.60;99.90
35668;DHT22;22158;59.280;17.806;2023-07-20T11:14:09;16.70;99.90
35668;DHT22;22158;59.280;17.806;2023-07-20T11:16:41;16.80;99.90
35668;DHT22;22158;59.280;17.806;2023-07-20T11:21:47;17.10;99.90
35668;DHT22;22158;59.280;17.806;2023-07-20T11:24:15;17.40;99.90
35668;DHT22;22158;59.280;17.806;2023-07-20T11:26:47;17.60;99.90
35668;DHT22;22158;59.280;17.806;2023-07-20T11:29:15;17.80;99.90
35668;DHT22;22158;59.280;17.806;2023-07-20T11:31:42;18.00;99.90
35668;DHT22;22158;59.280;17.806;2023-07-20T11:34:11;18.20;99.90
35668;DHT22;22158;59.280;17.806;2023-07-20T11:36:39;18.40;99.90
35668;DHT22;22158;59.280;17.806;2023-07-20T11:39:07;18.30;99.90
35668;DHT22;22158;59.280;17.806;2023-07-20T11:41:34;18.50;99.90
35668;DHT22;22158;59.280;17.806;2023-07-20T11:44:00;18.70;99.90
35668;DHT22;22158;59.280;17.806;2023-07-20T11:46:28;18.80;99.90
35668;DHT22;22158;59.280;17.806;2023-07-20T11:49:00;18.90;99.90
35668;DHT22;22158;59.280;17.806;2023-07-20T11:51:29;19.30;99.90
35668;DHT22;22158;59.280;17.806;2023-07-20T11:53:56;19.50;99.90
35668;DHT22;22158;59.280;17.806;2023-07-20T11:56:24;19.50;99.90
35668;DHT22;22158;59.280;17.806;2023-07-20T11:58:49;19.80;99.90
35668;DHT22;22158;59.280;17.806;2023-07-20T12:01:17;20.00;99.90
35668;DHT22;22158;59.280;17.806;2023-07-20T12:03:43;20.10;99.90
35668;DHT22;22158;59.280;17.806;2023-07-20T12:06:10;20.10;99.90
35668;DHT22;22158;59.280;17.806;2023-07-20T12:08:39;20.00;99.90
35668;DHT22;22158;59.280;17.806;2023-07-20T12:11:05;19.80;99.90
35668;DHT22;22158;59.280;17.806;2023-07-20T12:13:43;19.80;99.90
35668;DHT22;22158;59.280;17.806;2023-07-20T12:16:16;19.90;99.90
35668;DHT22;22158;59.280;17.806;2023-07-20T12:18:43;20.20;99.90
35668;DHT22;22158;59.280;17.806;2023-07-20T12:21:09;20.30;99.90
35668;DHT22;22158;59.280;17.806;2023-07-20T12:23:39;20.30;99.50
35668;DHT22;22158;59.280;17.806;2023-07-20T12:26:09;20.30;99.90
35668;DHT22;22158;59.280;17.806;2023-07-20T12:28:41;20.30;98.90
35668;DHT22;22158;59.280;17.806;2023-07-20T12:31:10;20.10;97.30
35668;DHT22;22158;59.280;17.806;2023-07-20T12:33:37;20.30;99.80
35668;DHT22;22158;59.280;17.806;2023-07-20T12:36:04;20.50;98.80
35668;DHT22;22158;59.280;17.806;2023-07-20T12:38:30;20.90;99.20
35668;DHT22;22158;59.280;17.806;2023-07-20T12:41:01;21.30;97.40
35668;DHT22;22158;59.280;17.806;2023-07-20T12:43:26;21.80;95.80
35668;DHT22;22158;59.280;17.806;2023-07-20T12:45:52;22.10;97.00
35668;DHT22;22158;59.280;17.806;2023-07-20T12:48:18;22.40;99.00
35668;DHT22;22158;59.280;17.806;2023-07-20T12:50:43;22.60;96.20
35668;DHT22;22158;59.280;17.806;2023-07-20T12:53:09;22.50;95.20
35668;DHT22;22158;59.280;17.806;2023-07-20T12:55:35;22.00;95.20
35668;DHT22;22158;59.280;17.806;2023-07-20T12:58:01;21.90;97.00
35668;DHT22;22158;59.280;17.806;2023-07-20T13:00:26;21.20;95.80
35668;DHT22;22158;59.280;17.806;2023-07-20T13:02:52;20.90;96.70
35668;DHT22;22158;59.280;17.806;2023-07-20T13:05:17;20.60;96.90
35668;DHT22;22158;59.280;17.806;2023-07-20T13:07:43;20.20;98.80
35668;DHT22;22158;59.280;17.806;2023-07-20T13:10:10;19.80;99.10
35668;DHT22;22158;59.280;17.806;2023-07-20T13:12:36;19.70;99.90
35668;DHT22;22158;59.280;17.806;2023-07-20T13:15:03;19.60;99.90
35668;DHT22;22158;59.280;17.806;2023-07-20T13:17:33;19.40;99.90
35668;DHT22;22158;59.280;17.806;2023-07-20T13:19:59;19.50;99.90
35668;DHT22;22158;59.280;17.806;2023-07-20T13:22:24;19.40;99.90
35668;DHT22;22158;59.280;17.806;2023-07-20T13:24:50;19.40;99.90
35668;DHT22;22158;59.280;17.806;2023-07-20T13:27:19;19.40;99.90
35668;DHT22;22158;59.280;17.806;2023-07-20T13:29:45;19.40;99.90
35668;DHT22;22158;59.280;17.806;2023-07-20T13:32:13;19.50;99.90
35668;DHT22;22158;59.280;17.806;2023-07-20T13:34:40;19.70;99.90
35668;DHT22;22158;59.280;17.806;2023-07-20T13:37:05;19.90;99.90
35668;DHT22;22158;59.280;17.806;2023-07-20T13:39:31;20.10;99.90
35668;DHT22;22158;59.280;17.806;2023-07-20T13:41:56;20.10;98.40
35668;DHT22;22158;59.280;17.806;2023-07-20T13:44:22;19.90;97.90
35668;DHT22;22158;59.280;17.806;2023-07-20T13:46:48;20.10;98.50
35668;DHT22;22158;59.280;17.806;2023-07-20T13:49:14;20.00;96.80
35668;DHT22;22158;59.280;17.806;2023-07-20T13:51:41;19.90;97.80
35668;DHT22;22158;59.280;17.806;2023-07-20T13:54:06;20.10;99.90
35668;DHT22;22158;59.280;17.806;2023-07-20T13:56:32;20.60;99.90
35668;DHT22;22158;59.280;17.806;2023-07-20T13:58:58;21.30;99.90
35668;DHT22;22158;59.280;17.806;2023-07-20T14:01:23;21.80;98.30
35668;DHT22;22158;59.280;17.806;2023-07-20T14:03:50;22.20;94.70
35668;DHT22;22158;59.280;17.806;2023-07-20T14:06:16;22.30;94.20
35668;DHT22;22158;59.280;17.806;2023-07-20T14:08:43;22.20;93.30
35668;DHT22;22158;59.280;17.806;2023-07-20T14:11:12;21.80;93.60
35668;DHT22;22158;59.280;17.806;2023-07-20T14:13:37;21.50;94.20
35668;DHT22;22158;59.280;17.806;2023-07-20T14:16:03;21.50;97.00
35668;DHT22;22158;59.280;17.806;2023-07-20T14:18:29;21.60;96.00
35668;DHT22;22158;59.280;17.806;2023-07-20T14:20:55;21.40;95.90
35668;DHT22;22158;59.280;17.806;2023-07-20T14:23:20;21.40;98.40
35668;DHT22;22158;59.280;17.806;2023-07-20T14:25:46;21.30;93.30
35668;DHT22;22158;59.280;17.806;2023-07-20T14:28:11;21.10;94.70
35668;DHT22;22158;59.280;17.806;2023-07-20T14:30:38;20.90;93.50
35668;DHT22;22158;59.280;17.806;2023-07-20T14:33:03;20.80;96.30
35668;DHT22;22158;59.280;17.806;2023-07-20T14:35:29;20.60;94.60
35668;DHT22;22158;59.280;17.806;2023-07-20T14:37:54;20.50;94.70
35668;DHT22;22158;59.280;17.806;2023-07-20T14:40:20;20.30;97.00
35668;DHT22;22158;59.280;17.806;2023-07-20T14:42:46;20.10;98.40
35668;DHT22;22158;59.280;17.806;2023-07-20T14:45:12;19.80;99.90
35668;DHT22;22158;59.280;17.806;2023-07-20T14:47:37;19.50;99.90
35668;DHT22;22158;59.280;17.806;2023-07-20T14:50:03;19.10;99.90
35668;DHT22;22158;59.280;17.806;2023-07-20T14:52:29;18.80;99.90
35668;DHT22;22158;59.280;17.806;2023-07-20T14:54:55;18.60;99.90
35668;DHT22;22158;59.280;17.806;2023-07-20T14:57:21;18.40;99.90
35668;DHT22;22158;59.280;17.806;2023-07-20T14:59:49;18.30;99.90
35668;DHT22;22158;59.280;17.806;2023-07-20T15:02:15;18.30;99.90
35668;DHT22;22158;59.280;17.806;2023-07-20T15:04:48;18.30;99.90
35668;DHT22;22158;59.280;17.806;2023-07-20T15:07:18;18.40;99.90
35668;DHT22;22158;59.280;17.806;2023-07-20T15:09:44;18.50;99.90
35668;DHT22;22158;59.280;17.806;2023-07-20T15:12:10;18.60;99.90
35668;DHT22;22158;59.280;17.806;2023-07-20T15:14:35;18.80;99.90
35668;DHT22;22158;59.280;17.806;2023-07-20T15:17:01;18.90;99.90
35668;DHT22;22158;59.280;17.806;2023-07-20T15:19:28;19.10;99.90
35668;DHT22;22158;59.280;17.806;2023-07-20T15:21:54;19.20;99.90
35668;DHT22;22158;59.280;17.806;2023-07-20T15:24:19;19.30;99.90
35668;DHT22;22158;59.280;17.806;2023-07-20T15:26:45;19.50;99.90
35668;DHT22;22158;59.280;17.806;2023-07-20T15:29:10;19.70;99.90
35668;DHT22;22158;59.280;17.806;2023-07-20T15:31:36;20.30;99.90